Data for 12/25/2017

Time Sea-Level Adjusted Pressure Absolute Pressure Temperature Relative Humidity Dew Point   
(mb) (inHg) (mb) (inHg) (C) (F) (%) (C) (F)
00:05 1019 30.09 848 25.04 -16.3 2.6 70 -20.6 -5.1
00:10 1019 30.09 848 25.04 -16.4 2.5 70 -20.6 -5.1
00:15 1019 30.09 848 25.04 -16.4 2.5 70 -20.7 -5.3
00:20 1019 30.09 848 25.04 -16.6 2.1 70 -20.8 -5.5
00:25 1019 30.09 848 25.04 -16.8 1.7 72 -20.8 -5.4
00:30 1019 30.09 848 25.04 -16.6 2 71 -20.7 -5.2
00:35 1019 30.09 848 25.04 -16.6 2.1 72 -20.6 -5.1
00:40 1019 30.09 848 25.04 -16.4 2.5 71 -20.5 -4.9
00:45 1019 30.09 848 25.04 -16.3 2.7 70 -20.5 -5
00:50 1019 30.09 848 25.04 -16.3 2.6 69 -20.7 -5.3
00:55 1019 30.09 848 25.04 -16.3 2.6 69 -20.7 -5.2
01:00 1019 30.09 848 25.04 -16.3 2.7 70 -20.6 -5
01:05 1019 30.09 848 25.04 -16.3 2.7 70 -20.5 -4.9
01:10 1018 30.06 848 25.04 -16.3 2.7 69 -20.7 -5.2
01:15 1018 30.06 848 25.04 -16.3 2.6 70 -20.7 -5.2
01:20 1018 30.06 848 25.04 -16.4 2.5 69 -20.7 -5.3
01:25 1018 30.06 848 25.04 -16.6 2.1 71 -20.6 -5.1
01:30 1018 30.06 848 25.04 -16.8 1.8 72 -20.6 -5.2
01:35 1018 30.06 847 25.01 -16.8 1.7 73 -20.6 -5
01:40 1018 30.06 847 25.01 -16.8 1.8 74 -20.3 -4.6
01:45 1018 30.06 847 25.01 -16.6 2.2 75 -20.1 -4.1
01:50 1018 30.06 847 25.01 -16.5 2.3 74 -20.2 -4.3
01:55 1018 30.06 847 25.01 -16.6 2.2 72 -20.5 -4.9
02:00 1018 30.06 847 25.01 -16.7 2 73 -20.5 -4.9
02:05 1018 30.06 847 25.01 -16.7 1.9 72 -20.7 -5.2
02:10 1018 30.06 847 25.01 -17 1.5 73 -20.7 -5.2
02:15 1018 30.06 848 25.04 -17 1.4 74 -20.6 -5.1
02:20 1018 30.06 848 25.04 -17 1.4 74 -20.7 -5.2
02:25 1018 30.06 848 25.04 -16.9 1.5 73 -20.7 -5.3
02:30 1018 30.06 848 25.04 -17 1.5 73 -20.7 -5.3
02:35 1019 30.09 848 25.04 -17.1 1.2 73 -20.8 -5.5
02:40 1018 30.06 848 25.04 -17.2 1.1 73 -20.9 -5.6
02:45 1018 30.06 848 25.04 -17.4 0.6 74 -21 -5.9
02:50 1019 30.09 848 25.04 -17.7 0.2 76 -20.9 -5.6
02:55 1019 30.09 848 25.04 -17.4 0.7 75 -20.8 -5.4
03:00 1019 30.09 848 25.04 -17.1 1.2 74 -20.7 -5.3
03:05 1019 30.09 848 25.04 -17 1.5 73 -20.7 -5.2
03:10 1019 30.09 848 25.04 -16.9 1.6 72 -20.8 -5.4
03:15 1019 30.09 848 25.04 -16.9 1.5 73 -20.6 -5.1
03:20 1019 30.09 848 25.04 -16.9 1.7 73 -20.6 -5.2
03:25 1019 30.09 848 25.04 -16.8 1.8 73 -20.6 -5.1
03:30 1018 30.06 848 25.04 -16.7 2 72 -20.6 -5
03:35 1018 30.06 848 25.04 -16.8 1.8 72 -20.7 -5.3
03:40 1018 30.06 848 25.04 -17.1 1.2 73 -20.9 -5.6
03:45 1018 30.06 848 25.04 -17.3 0.9 74 -21 -5.7
03:50 1018 30.06 847 25.01 -17.2 1 75 -20.6 -5.1
03:55 1018 30.06 847 25.01 -17.1 1.2 76 -20.4 -4.7
04:00 1018 30.06 847 25.01 -17 1.4 75 -20.4 -4.8
04:05 1018 30.06 847 25.01 -17 1.5 76 -20.3 -4.5
04:10 1018 30.06 847 25.01 -17 1.5 76 -20.3 -4.5
04:15 1018 30.06 847 25.01 -17 1.4 76 -20.3 -4.5
04:20 1018 30.06 847 25.01 -17.1 1.3 77 -20.2 -4.4
04:25 1018 30.06 847 25.01 -17 1.4 77 -20.1 -4.2
04:30 1018 30.06 847 25.01 -17.1 1.3 78 -20.1 -4.1
04:35 1018 30.06 847 25.01 -17 1.4 78 -19.9 -3.9
04:40 1018 30.06 847 25.01 -17 1.3 78 -20 -3.9
04:45 1017 30.03 847 25.01 -17.1 1.2 79 -19.9 -3.9
04:50 1017 30.03 847 25.01 -17.2 1.1 79 -20 -3.9
04:55 1017 30.03 847 25.01 -17.1 1.2 79 -20 -4
05:00 1017 30.03 847 25.01 -17.1 1.2 80 -19.8 -3.6
05:05 1017 30.03 847 25.01 -16.8 1.7 79 -19.7 -3.5
05:10 1017 30.03 846 24.98 -16.7 2 79 -19.6 -3.2
05:15 1017 30.03 846 24.98 -16.6 2.1 78 -19.6 -3.4
05:20 1017 30.03 846 24.98 -16.8 1.7 79 -19.7 -3.5
05:25 1017 30.03 846 24.98 -16.8 1.7 78 -19.9 -3.8
05:30 1017 30.03 846 24.98 -17 1.3 80 -19.7 -3.5
05:35 1017 30.03 846 24.98 -16.8 1.8 79 -19.6 -3.3
05:40 1017 30.03 846 24.98 -16.7 1.9 79 -19.6 -3.3
05:45 1017 30.03 846 24.98 -16.9 1.5 79 -19.8 -3.7
05:50 1017 30.03 846 24.98 -17.1 1.1 79 -19.9 -3.8
05:55 1017 30.03 846 24.98 -17 1.3 80 -19.7 -3.5
06:00 1017 30.03 846 24.98 -16.8 1.7 78 -19.8 -3.7
06:05 1017 30.03 846 24.98 -17.2 1.1 80 -19.9 -3.8
06:10 1017 30.03 846 24.98 -17.2 1.1 81 -19.8 -3.6
06:15 1017 30.03 847 25.01 -16.8 1.7 78 -19.8 -3.6
06:20 1017 30.03 846 24.98 -17.1 1.3 79 -19.9 -3.8
06:25 1017 30.03 847 25.01 -17.1 1.3 80 -19.7 -3.4
06:30 1017 30.03 847 25.01 -16.9 1.6 79 -19.6 -3.4
06:35 1017 30.03 847 25.01 -16.9 1.5 79 -19.7 -3.5
06:40 1017 30.03 847 25.01 -17 1.4 78 -20 -4
06:45 1017 30.03 847 25.01 -17.2 1 79 -20.1 -4.2
06:50 1017 30.03 847 25.01 -17.4 0.8 79 -20.1 -4.2
06:55 1017 30.03 847 25.01 -17.2 1 80 -19.9 -3.7
07:00 1017 30.03 847 25.01 -17.2 1 80 -19.9 -3.8
07:05 1017 30.03 847 25.01 -17.4 0.8 80 -20 -4.1
07:10 1017 30.03 847 25.01 -17.4 0.7 80 -20 -4
07:15 1017 30.03 846 24.98 -17.3 0.8 81 -19.9 -3.8
07:20 1017 30.03 847 25.01 -17.3 0.9 80 -19.9 -3.8
07:25 1017 30.03 846 24.98 -17.2 1 80 -19.9 -3.8
07:30 1017 30.03 846 24.98 -17.1 1.2 80 -19.8 -3.6
07:35 1017 30.03 846 24.98 -17 1.4 80 -19.7 -3.4
07:40 1017 30.03 846 24.98 -16.9 1.5 79 -19.7 -3.5
07:45 1017 30.03 846 24.98 -17.1 1.3 80 -19.8 -3.7
07:50 1017 30.03 846 24.98 -17.1 1.2 81 -19.7 -3.4
07:55 1017 30.03 846 24.98 -17 1.4 81 -19.6 -3.2
08:00 1017 30.03 846 24.98 -16.9 1.7 80 -19.5 -3.1
08:05 1017 30.03 846 24.98 -16.7 2 80 -19.3 -2.8
08:10 1017 30.03 846 24.98 -16.5 2.2 81 -19.1 -2.4
08:15 1017 30.03 846 24.98 -16.4 2.5 80 -19.2 -2.5
08:20 1017 30.03 846 24.98 -16.5 2.3 80 -19.2 -2.5
08:25 1017 30.03 846 24.98 -16.4 2.5 81 -19 -2.1
08:30 1017 30.03 846 24.98 -16.3 2.7 81 -18.8 -1.9
08:35 1017 30.03 846 24.98 -16.3 2.7 80 -18.9 -2
08:40 1017 30.03 846 24.98 -16.4 2.5 82 -18.8 -1.9
08:45 1017 30.03 846 24.98 -16.2 2.9 79 -19 -2.1
08:50 1017 30.03 846 24.98 -16.2 2.8 79 -19.1 -2.4
08:55 1017 30.03 846 24.98 -16.5 2.3 80 -19.2 -2.6
09:00 1017 30.03 846 24.98 -16.4 2.4 81 -19 -2.2
09:05 1017 30.03 847 25.01 -16.1 3 80 -18.8 -1.8
09:10 1017 30.03 847 25.01 -15.9 3.4 79 -18.7 -1.6
09:15 1017 30.03 847 25.01 -15.8 3.5 78 -18.8 -1.8
09:20 1017 30.03 847 25.01 -15.9 3.3 79 -18.8 -1.8
09:25 1018 30.06 847 25.01 -15.9 3.4 79 -18.8 -1.8
09:30 1017 30.03 847 25.01 -15.7 3.7 78 -18.6 -1.6
09:35 1017 30.03 847 25.01 -15.7 3.7 78 -18.8 -1.9
09:40 1018 30.06 847 25.01 -16 3.2 79 -18.8 -1.9
09:45 1018 30.06 847 25.01 -16 3.2 79 -18.9 -2
09:50 1018 30.06 847 25.01 -16.1 3.1 80 -18.8 -1.9
09:55 1018 30.06 847 25.01 -16.1 3.1 80 -18.8 -1.9
10:00 1018 30.06 847 25.01 -15.8 3.5 80 -18.6 -1.5
10:05 1018 30.06 847 25.01 -15.6 4 79 -18.4 -1.1
10:10 1018 30.06 847 25.01 -15.2 4.6 79 -18.2 -0.7
10:15 1018 30.06 847 25.01 -15.2 4.7 78 -18.1 -0.6
10:20 1018 30.06 847 25.01 -15.1 4.9 78 -18.1 -0.6
10:25 1018 30.06 847 25.01 -14.9 5.2 77 -18.1 -0.5
10:30 1018 30.06 847 25.01 -14.8 5.4 76 -18.1 -0.5
10:35 1018 30.06 847 25.01 -15 5 77 -18.2 -0.8
10:40 1018 30.06 848 25.04 -15.1 4.7 76 -18.4 -1.2
10:45 1018 30.06 848 25.04 -15.2 4.6 76 -18.5 -1.3
10:50 1018 30.06 848 25.04 -15.2 4.7 77 -18.3 -0.9
10:55 1018 30.06 848 25.04 -15.1 4.7 76 -18.5 -1.3
11:00 1018 30.06 847 25.01 -15.3 4.5 77 -18.5 -1.4
11:05 1018 30.06 847 25.01 -15.2 4.6 76 -18.5 -1.3
11:10 1018 30.06 847 25.01 -15.1 4.8 76 -18.4 -1.2
11:15 1018 30.06 848 25.04 -15 4.9 76 -18.4 -1.2
11:20 1018 30.06 848 25.04 -15 5.1 77 -18.1 -0.6
11:25 1018 30.06 848 25.04 -14.9 5.3 76 -18.1 -0.6
11:30 1018 30.06 847 25.01 -14.9 5.2 76 -18.2 -0.8
11:35 1018 30.06 847 25.01 -14.8 5.3 75 -18.4 -1
11:40 1018 30.06 847 25.01 -14.9 5.3 77 -18.1 -0.5
11:45 1018 30.06 847 25.01 -14.5 5.9 77 -17.7 0.1
11:50 1018 30.06 848 25.04 -14.2 6.5 77 -17.4 0.6
11:55 1018 30.06 848 25.04 -14.4 6.1 77 -17.6 0.3
12:00 1018 30.06 847 25.01 -14.6 5.7 78 -17.6 0.3
12:05 1018 30.06 847 25.01 -14.5 6 77 -17.6 0.3
12:10 1018 30.06 847 25.01 -14.3 6.3 76 -17.6 0.3
12:15 1018 30.06 847 25.01 -14.2 6.4 77 -17.5 0.6
12:20 1018 30.06 847 25.01 -14.4 6.1 76 -17.8 -0
12:25 1018 30.06 847 25.01 -14.3 6.2 75 -17.9 -0.2
12:30 1018 30.06 847 25.01 -14.5 5.9 74 -18.1 -0.7
12:35 1018 30.06 847 25.01 -14.7 5.6 77 -17.8 -0.1
12:40 1018 30.06 847 25.01 -14.1 6.5 77 -17.3 0.8
12:45 1018 30.06 848 25.04 -13.5 7.8 76 -16.8 1.8
12:50 1018 30.06 848 25.04 -13.4 7.9 74 -17.1 1.2
12:55 1018 30.06 848 25.04 -13.9 6.9 74 -17.6 0.4
13:00 1018 30.06 848 25.04 -13.9 6.9 75 -17.4 0.6
13:05 1018 30.06 848 25.04 -13.8 7.3 72 -17.8 -0
13:10 1018 30.06 848 25.04 -14 6.8 72 -18 -0.4
13:15 1018 30.06 848 25.04 -14.4 6.2 73 -18.3 -0.9
13:20 1018 30.06 848 25.04 -14.3 6.3 72 -18.3 -0.9
13:25 1018 30.06 848 25.04 -14.4 6.2 73 -18.2 -0.8
13:30 1018 30.06 848 25.04 -14.3 6.3 74 -18 -0.4
13:35 1018 30.06 848 25.04 -14.1 6.6 71 -18.4 -1.1
13:40 1019 30.09 848 25.04 -14.5 5.9 71 -18.7 -1.6
13:45 1019 30.09 848 25.04 -14.4 6.1 68 -19.1 -2.4
13:50 1019 30.09 848 25.04 -14.7 5.5 68 -19.3 -2.8
13:55 1019 30.09 848 25.04 -14.9 5.1 70 -19.3 -2.7
14:00 1018 30.06 848 25.04 -14.9 5.3 68 -19.5 -3
14:05 1018 30.06 848 25.04 -14.9 5.3 71 -19 -2.2
14:10 1018 30.06 848 25.04 -14.8 5.3 71 -19 -2.2
14:15 1019 30.09 848 25.04 -14.7 5.5 72 -18.8 -1.8
14:20 1019 30.09 848 25.04 -14.7 5.6 70 -19 -2.1
14:25 1019 30.09 848 25.04 -15 5.1 72 -19 -2.1
14:30 1019 30.09 848 25.04 -15 4.9 73 -18.8 -1.9
14:35 1019 30.09 848 25.04 -15 5 73 -18.8 -1.8
14:40 1019 30.09 848 25.04 -15 5.1 73 -18.8 -1.8
14:45 1019 30.09 848 25.04 -15.1 4.8 72 -19.1 -2.4
14:50 1019 30.09 848 25.04 -15.3 4.4 73 -19.2 -2.6
14:55 1019 30.09 848 25.04 -15.5 4.1 72 -19.4 -2.9
15:00 1019 30.09 848 25.04 -15.6 3.9 74 -19.3 -2.8
15:05 1019 30.09 848 25.04 -15.7 3.8 74 -19.3 -2.7
15:10 1019 30.09 848 25.04 -15.7 3.7 75 -19.1 -2.4
15:15 1019 30.09 848 25.04 -15.6 3.9 74 -19.2 -2.6
15:20 1019 30.09 848 25.04 -15.7 3.8 75 -19.2 -2.5
15:25 1019 30.09 848 25.04 -15.6 3.8 74 -19.2 -2.6
15:30 1019 30.09 848 25.04 -15.6 4 75 -19 -2.3
15:35 1019 30.09 848 25.04 -15.4 4.3 74 -19 -2.2
15:40 1019 30.09 848 25.04 -15.4 4.3 74 -19 -2.1
15:45 1019 30.09 848 25.04 -15.6 3.8 76 -19 -2.2
15:50 1019 30.09 848 25.04 -15.7 3.7 76 -19 -2.2
15:55 1019 30.09 848 25.04 -15.7 3.8 77 -18.8 -1.9
16:00 1019 30.09 848 25.04 -15.6 4 76 -18.9 -2
16:05 1019 30.09 848 25.04 -15.8 3.6 78 -18.8 -1.9
16:10 1019 30.09 848 25.04 -15.8 3.6 78 -18.8 -1.9
16:15 1019 30.09 848 25.04 -15.7 3.7 78 -18.7 -1.7
16:20 1019 30.09 848 25.04 -15.8 3.6 77 -18.9 -2
16:25 1019 30.09 848 25.04 -16 3.2 78 -19 -2.2
16:30 1019 30.09 849 25.07 -16 3.2 77 -19.1 -2.5
16:35 1019 30.09 849 25.07 -16.1 3.1 77 -19.2 -2.5
16:40 1019 30.09 849 25.07 -16.1 3.1 76 -19.4 -3
16:45 1019 30.09 849 25.07 -16.1 3.1 75 -19.5 -3.1
16:50 1019 30.09 849 25.07 -16.1 3.1 75 -19.5 -3.2
16:55 1019 30.09 849 25.07 -16.2 2.9 75 -19.6 -3.2
17:00 1019 30.09 849 25.07 -16.2 2.8 76 -19.6 -3.2
17:05 1020 30.12 849 25.07 -16.3 2.7 76 -19.5 -3.1
17:10 1020 30.12 849 25.07 -16.4 2.6 78 -19.4 -2.9
17:15 1020 30.12 849 25.07 -16.4 2.5 78 -19.4 -2.9
17:20 1020 30.12 849 25.07 -16.4 2.5 78 -19.4 -2.8
17:25 1020 30.12 849 25.07 -16.4 2.6 78 -19.3 -2.8
17:30 1020 30.12 849 25.07 -16.4 2.6 78 -19.4 -2.9
17:35 1020 30.12 849 25.07 -16.3 2.6 77 -19.5 -3.1
17:40 1020 30.12 849 25.07 -16.3 2.7 77 -19.5 -3.1
17:45 1020 30.12 849 25.07 -16.2 2.9 75 -19.6 -3.3
17:50 1020 30.12 849 25.07 -16.3 2.6 77 -19.5 -3.2
17:55 1020 30.12 849 25.07 -16.3 2.7 77 -19.5 -3.1
18:00 1020 30.12 849 25.07 -16.2 2.8 77 -19.4 -3
18:05 1020 30.12 849 25.07 -16.1 2.9 77 -19.3 -2.7
18:10 1020 30.12 849 25.07 -16.1 2.9 77 -19.3 -2.8
18:15 1020 30.12 849 25.07 -16.1 3 77 -19.2 -2.6
18:20 1020 30.12 849 25.07 -16.1 3 77 -19.2 -2.6
18:25 1020 30.12 850 25.1 -16.2 2.9 77 -19.3 -2.8
18:30 1020 30.12 850 25.1 -16.2 2.9 77 -19.3 -2.7
18:35 1020 30.12 850 25.1 -16.2 2.8 78 -19.2 -2.6
18:40 1020 30.12 850 25.1 -16.3 2.7 78 -19.3 -2.8
18:45 1020 30.12 850 25.1 -16.3 2.7 78 -19.3 -2.7
18:50 1020 30.12 850 25.1 -16.3 2.8 77 -19.4 -2.9
18:55 1020 30.12 850 25.1 -16.3 2.7 78 -19.3 -2.8
19:00 1021 30.15 850 25.1 -16.3 2.6 78 -19.3 -2.7
19:05 1021 30.15 850 25.1 -16.3 2.7 79 -19.2 -2.6
19:10 1021 30.15 850 25.1 -16.3 2.7 77 -19.4 -2.9
19:15 1021 30.15 850 25.1 -16.3 2.6 77 -19.5 -3.2
19:20 1021 30.15 850 25.1 -16.3 2.7 77 -19.4 -2.9
19:25 1021 30.15 850 25.1 -16.3 2.8 77 -19.4 -2.9
19:30 1021 30.15 850 25.1 -16.3 2.7 77 -19.4 -3
19:35 1021 30.15 850 25.1 -16.2 2.9 76 -19.4 -3
19:40 1021 30.15 850 25.1 -16.3 2.7 76 -19.5 -3.1
19:45 1021 30.15 850 25.1 -16.3 2.6 76 -19.7 -3.4
19:50 1021 30.15 850 25.1 -16.3 2.6 75 -19.7 -3.5
19:55 1021 30.15 850 25.1 -16.4 2.6 75 -19.8 -3.6
20:00 1021 30.15 850 25.1 -16.3 2.7 75 -19.7 -3.5
20:05 1021 30.15 850 25.1 -16.3 2.7 76 -19.6 -3.4
20:10 1021 30.15 850 25.1 -16.2 2.9 75 -19.6 -3.3
20:15 1021 30.15 850 25.1 -16.2 2.9 75 -19.6 -3.3
20:20 1021 30.15 850 25.1 -16.2 2.9 75 -19.7 -3.4
20:25 1021 30.15 850 25.1 -16.1 3 76 -19.5 -3.1
20:30 1021 30.15 850 25.1 -16.1 3.1 75 -19.6 -3.3
20:35 1021 30.15 850 25.1 -16.1 3.1 74 -19.7 -3.5
20:40 1021 30.15 850 25.1 -16.1 3 74 -19.7 -3.5
20:45 1021 30.15 850 25.1 -16.1 3 73 -19.9 -3.9
20:50 1021 30.15 851 25.13 -16.1 3 73 -19.9 -3.8
20:55 1021 30.15 851 25.13 -16.1 3 73 -19.9 -3.8
21:00 1021 30.15 851 25.13 -16 3.1 74 -19.7 -3.5
21:05 1021 30.15 851 25.13 -16.1 3 74 -19.7 -3.5
21:10 1021 30.15 851 25.13 -16.1 3.1 74 -19.8 -3.6
21:15 1021 30.15 851 25.13 -16.1 3 74 -19.6 -3.4
21:20 1021 30.15 851 25.13 -16.1 3 75 -19.6 -3.3
21:25 1021 30.15 851 25.13 -16.2 2.9 76 -19.5 -3.1
21:30 1021 30.15 851 25.13 -16.2 2.9 76 -19.5 -3.1
21:35 1021 30.15 851 25.13 -16.3 2.8 76 -19.6 -3.2
21:40 1021 30.15 851 25.13 -16.3 2.7 77 -19.4 -3
21:45 1021 30.15 851 25.13 -16.2 2.8 77 -19.4 -2.9
21:50 1021 30.15 851 25.13 -16.2 2.8 76 -19.5 -3.1
21:55 1021 30.15 851 25.13 -16.2 2.8 76 -19.5 -3.1
22:00 1021 30.15 851 25.13 -16.2 2.8 77 -19.4 -2.9
22:05 1021 30.15 851 25.13 -16.2 2.9 77 -19.3 -2.8
22:10 1021 30.15 851 25.13 -16.2 2.9 77 -19.4 -2.9
22:15 1021 30.15 851 25.13 -16.2 2.9 77 -19.3 -2.8
22:20 1021 30.15 851 25.13 -16.2 2.9 77 -19.4 -2.9
22:25 1021 30.15 851 25.13 -16.2 2.8 78 -19.2 -2.5
22:30 1021 30.15 851 25.13 -16.1 3.1 77 -19.2 -2.6
22:35 1021 30.15 851 25.13 -16.1 3 77 -19.3 -2.7
22:40 1022 30.18 851 25.13 -16.2 2.8 78 -19.1 -2.5
22:45 1022 30.18 851 25.13 -16.1 3.1 78 -19.1 -2.4
22:50 1022 30.18 851 25.13 -16.2 2.9 79 -19.1 -2.3
22:55 1022 30.18 851 25.13 -16.1 2.9 79 -19 -2.3
23:00 1022 30.18 851 25.13 -16.2 2.8 78 -19.2 -2.5
23:05 1022 30.18 851 25.13 -16.3 2.7 79 -19.1 -2.4
23:10 1022 30.18 851 25.13 -16.2 2.8 79 -19.1 -2.4
23:15 1022 30.18 851 25.13 -16.2 2.8 79 -19.1 -2.4
23:20 1022 30.18 851 25.13 -16.2 2.9 79 -19.1 -2.3
23:25 1022 30.18 851 25.13 -16.1 3 79 -19 -2.3
23:30 1022 30.18 851 25.13 -16.1 3 79 -18.9 -2.1
23:35 1022 30.18 851 25.13 -16.1 3.1 78 -19.1 -2.3
23:40 1022 30.18 851 25.13 -16.1 3 78 -19.2 -2.5
23:45 1022 30.18 851 25.13 -16.1 3 78 -19.2 -2.6
23:50 1022 30.18 851 25.13 -16.1 3 78 -19.1 -2.4
23:55 1022 30.18 851 25.13 -16.1 2.9 78 -19.1 -2.4
24:00 1022 30.18 851 25.13 -16.1 3 78 -19.1 -2.4